Main page
METAR-TAF:

METAR-TAF

Airports :

Pamplona Airport

Pamplona, Spain

latitude: 42-46N, longitude: 001-38W, elevation: 459 m

Current weather observation

The report was made 18 minutes ago, at 21:30 UTC
Wind 3 kt from the East
Temperature 5°C
Humidity 87%
Pressure 1022 hPa
Visibility 10 km or more
no clouds below 1500 m and no cumulonimbus

METAR: LEPP 102130Z 10003KT CAVOK 05/03 Q1022

Time: 22:48 (21:48 UTC)

Forecast

The report was made 1 hour and 48 minutes ago, at 20:00 UTC
Forecast valid from 10 at 21 UTC to 11 at 21 UTC
Wind 4 kt from variable directions
Visibility 10 km or more
Few clouds at a height of 3000 ft
Temporary
from 11 at 09 UTC to 11 at 13 UTC
Visibility: 3000 m
Broken clouds at a height of 1000 ft
rain
Temporary
from 11 at 09 UTC to 11 at 21 UTC
Wind 11 kt from the Northwest
Probability 30% :
Temporary
from 11 at 18 UTC to 11 at 21 UTC
rain

TAF: LEPP 102000Z 1021/1121 VRB04KT 9999 FEW030 TX09/1114Z TN02/1105Z TEMPO 1109/1113 3000 RA BKN010 TEMPO 1109/1121 32011KT PROB30 TEMPO 1118/1121 RA

Weather observations and forecasts of more than 4000 airports (METAR and TAF reports).

The available stations are represented by yellow and red dots on the map.

Hover mouse over dot to see the name of the station.

Then click to see weather observations and forecasts.

To change the map : click on the green buttons with a black cross to zoom in, on the green button with a dash to zoom out, or on the green arrows for adjacent maps.


METAR-TAF: